Time;durP1;ratioP1;P1;durP2;ratioP2;P2;SDS_P1;SDS_P2;PMS_P1;PMS_P2;Temp;Humidity;BMP_temperature;BMP_pressure;BME280_temperature;BME280_humidity;BME280_pressure;Samples;Min_cycle;Max_cycle;Signal;HPM_P1;HPM_P2
2021/12/14 00:00:18;;;;;;;44.90;21.55;;;;;;;-141.50;100.00;63355.56;4944122;28;20056;-82
2021/12/14 00:02:46;;;;;;;44.33;21.35;;;;;;;-141.50;100.00;63355.56;4928465;29;20088;-83
2021/12/14 00:05:15;;;;;;;41.72;20.83;;;;;;;-141.50;100.00;63355.56;4916966;29;20106;-83
2021/12/14 00:07:41;;;;;;;41.20;19.35;;;;;;;-141.50;100.00;63355.56;4917528;29;20464;-82
2021/12/14 00:10:31;;;;;;;40.83;19.55;;;;;;;-141.50;100.00;63355.56;4917630;29;20374;-82
2021/12/14 00:13:08;;;;;;;38.70;18.85;;;;;;;-141.50;100.00;63355.56;4918389;29;20119;-84
2021/12/14 00:15:35;;;;;;;34.70;18.15;;;;;;;-141.50;100.00;63355.56;4916375;29;20048;-83
2021/12/14 00:18:07;;;;;;;31.80;17.38;;;;;;;-141.50;100.00;63355.56;4919519;29;20060;-84
2021/12/14 00:20:43;;;;;;;32.10;15.75;;;;;;;-141.50;100.00;63355.56;4918401;29;20131;-84
2021/12/14 00:25:44;;;;;;;31.23;16.35;;;;;;;-141.50;100.00;63355.56;4919226;29;20212;-84
2021/12/14 00:28:18;;;;;;;32.10;15.77;;;;;;;-141.50;100.00;63355.56;4918780;29;20425;-83
2021/12/14 00:30:47;;;;;;;29.83;15.80;;;;;;;-141.50;100.00;63355.56;4915886;29;20263;-83
2021/12/14 00:33:17;;;;;;;26.00;14.20;;;;;;;-141.50;100.00;63355.56;4918979;29;20078;-84
2021/12/14 00:35:45;;;;;;;29.33;14.80;;;;;;;-141.50;100.00;63355.56;4919139;29;20044;-83
2021/12/14 00:38:14;;;;;;;30.20;15.48;;;;;;;-141.50;100.00;63355.56;4917023;29;20367;-83
2021/12/14 00:40:45;;;;;;;29.98;15.32;;;;;;;-141.50;100.00;63355.56;4932531;29;20060;-84
2021/12/14 00:43:12;;;;;;;27.08;14.38;;;;;;;-141.50;100.00;63355.56;4931006;29;20059;-84
2021/12/14 00:45:43;;;;;;;25.83;14.45;;;;;;;-141.50;100.00;63355.56;4932012;29;20095;-84
2021/12/14 00:48:11;;;;;;;28.67;14.35;;;;;;;-141.50;100.00;63355.56;4931559;29;20056;-83
2021/12/14 00:50:42;;;;;;;23.13;12.27;;;;;;;-141.50;100.00;63355.56;4917009;29;20131;-83
2021/12/14 00:53:09;;;;;;;23.15;11.65;;;;;;;-141.50;100.00;63355.56;4935103;29;20080;-84
2021/12/14 00:55:41;;;;;;;26.10;12.60;;;;;;;-141.50;100.00;63355.56;4925058;29;20052;-83
2021/12/14 00:58:08;;;;;;;24.85;12.52;;;;;;;-141.50;100.00;63355.56;4927798;29;20389;-83
2021/12/14 01:00:43;;;;;;;20.90;12.15;;;;;;;-141.50;100.00;63355.56;4916490;29;20071;-83
2021/12/14 01:03:10;;;;;;;23.47;12.63;;;;;;;-141.50;100.00;63355.56;4917877;29;20088;-83
2021/12/14 01:05:42;;;;;;;22.15;11.43;;;;;;;-141.50;100.00;63355.56;4917226;29;20052;-83
2021/12/14 01:08:13;;;;;;;24.65;12.18;;;;;;;-141.50;100.00;63355.56;4916991;29;20116;-83
2021/12/14 01:10:47;;;;;;;22.52;11.80;;;;;;;-141.50;100.00;63355.56;4919394;29;20060;-84
2021/12/14 01:13:15;;;;;;;22.50;11.60;;;;;;;-141.50;100.00;63355.56;4918841;29;20080;-84
2021/12/14 01:16:02;;;;;;;23.50;11.95;;;;;;;-141.50;100.00;63355.56;4929926;29;20108;-83
2021/12/14 01:24:08;;;;;;;28.67;13.80;;;;;;;-141.50;100.00;63355.56;4919534;29;20461;-84
2021/12/14 01:26:38;;;;;;;21.27;10.77;;;;;;;-141.50;100.00;63355.56;4919698;29;20084;-84
2021/12/14 01:29:09;;;;;;;37.33;15.35;;;;;;;-141.50;100.00;63355.56;4932753;29;20325;-83
2021/12/14 01:31:39;;;;;;;26.27;14.27;;;;;;;-141.50;100.00;63355.56;4918455;29;20098;-84
2021/12/14 01:34:20;;;;;;;33.45;16.00;;;;;;;-141.50;100.00;63355.56;4919131;29;20094;-83
2021/12/14 01:36:52;;;;;;;32.72;16.13;;;;;;;-141.50;100.00;63355.56;4934213;29;20087;-83
2021/12/14 01:42:00;;;;;;;33.20;16.80;;;;;;;-141.50;100.00;63355.56;4918502;29;20398;-83
2021/12/14 01:44:31;;;;;;;31.70;15.13;;;;;;;-141.50;100.00;63355.56;4917136;29;20143;-83
2021/12/14 01:47:04;;;;;;;27.00;14.18;;;;;;;-141.50;100.00;63355.56;4919350;29;20063;-83
2021/12/14 01:49:31;;;;;;;29.30;15.23;;;;;;;-141.50;100.00;63355.56;4918458;29;20075;-83
2021/12/14 01:52:03;;;;;;;27.85;14.35;;;;;;;-141.50;100.00;63355.56;4916851;29;20083;-83
2021/12/14 01:54:36;;;;;;;25.83;13.15;;;;;;;-141.50;100.00;63355.56;4917295;29;20133;-81
2021/12/14 01:57:07;;;;;;;19.40;11.65;;;;;;;-141.50;100.00;63355.56;4919622;29;20137;-83
2021/12/14 01:59:36;;;;;;;21.27;11.45;;;;;;;-141.50;100.00;63355.56;4917751;29;20052;-83
2021/12/14 02:04:45;;;;;;;18.73;10.25;;;;;;;-141.50;100.00;63355.56;4921481;29;20103;-84
2021/12/14 02:07:14;;;;;;;16.10;10.05;;;;;;;-141.50;100.00;63355.56;4924566;29;20079;-83
2021/12/14 02:09:42;;;;;;;16.75;9.98;;;;;;;-141.50;100.00;63355.56;4925843;29;20056;-83
2021/12/14 02:12:17;;;;;;;16.20;9.45;;;;;;;-141.50;100.00;63355.56;4919616;29;20099;-83
2021/12/14 02:14:45;;;;;;;;;;;;;;;-141.50;100.00;63355.56;4915143;29;20477;-83
2021/12/14 02:17:14;;;;;;;16.50;9.50;;;;;;;-141.50;100.00;63355.56;4916948;29;19974;-82
2021/12/14 02:19:43;;;;;;;14.60;7.63;;;;;;;-141.50;100.00;63355.56;4932857;29;20052;-83
2021/12/14 02:22:10;;;;;;;13.80;7.75;;;;;;;-141.50;100.00;63355.56;4917737;29;20064;-82
2021/12/14 02:24:40;;;;;;;11.18;6.93;;;;;;;-141.50;100.00;63355.56;4916536;29;20083;-83
2021/12/14 02:27:07;;;;;;;9.65;5.88;;;;;;;-141.50;100.00;63355.56;4931455;29;20185;-83
2021/12/14 02:29:42;;;;;;;9.40;5.88;;;;;;;-141.50;100.00;63355.56;4931748;29;20526;-83
2021/12/14 02:32:19;;;;;;;9.63;4.80;;;;;;;-141.50;100.00;63355.56;4933096;29;20064;-82
2021/12/14 02:34:50;;;;;;;6.43;4.40;;;;;;;-141.50;100.00;63355.56;4917769;29;20308;-84
2021/12/14 02:37:32;;;;;;;6.32;4.13;;;;;;;-141.50;100.00;63355.56;4918962;29;20123;-82
2021/12/14 02:40:14;;;;;;;7.07;4.60;;;;;;;-141.50;100.00;63355.56;4920609;29;20052;-81
2021/12/14 02:42:41;;;;;;;6.90;4.40;;;;;;;-141.50;100.00;63355.56;4921800;29;20051;-82
2021/12/14 02:45:08;;;;;;;7.82;4.68;;;;;;;-141.50;100.00;63355.56;4918597;29;20083;-84
2021/12/14 02:47:35;;;;;;;7.78;4.85;;;;;;;-141.50;100.00;63355.56;4919142;29;20143;-84
2021/12/14 02:50:04;;;;;;;9.80;5.75;;;;;;;-141.50;100.00;63355.56;4919458;29;20079;-83
2021/12/14 02:52:35;;;;;;;9.73;5.43;;;;;;;-141.50;100.00;63355.56;4933141;29;20109;-84
2021/12/14 02:55:22;;;;;;;8.93;5.90;;;;;;;-141.50;100.00;63355.56;4957136;28;20083;-82
2021/12/14 02:57:52;;;;;;;10.60;6.05;;;;;;;-141.50;100.00;63355.56;4953495;28;20118;-83
2021/12/14 03:00:27;;;;;;;11.98;6.88;;;;;;;-141.50;100.00;63355.56;4954994;28;20067;-82
2021/12/14 03:02:57;;;;;;;13.48;6.75;;;;;;;-141.50;100.00;63355.56;4955347;28;20082;-82
2021/12/14 03:05:29;;;;;;;11.93;7.15;;;;;;;-141.50;100.00;63355.56;4954703;28;20417;-83
2021/12/14 03:08:02;;;;;;;13.05;7.45;;;;;;;-141.50;100.00;63355.56;4962937;28;20106;-81
2021/12/14 03:13:02;;;;;;;15.10;8.35;;;;;;;-141.50;100.00;63355.56;4958330;28;20051;-83
2021/12/14 03:15:29;;;;;;;17.10;8.77;;;;;;;-141.50;100.00;63355.56;4954325;28;20051;-82
2021/12/14 03:17:59;;;;;;;15.05;8.45;;;;;;;-141.50;100.00;63355.56;4955218;29;20499;-82
2021/12/14 03:20:34;;;;;;;17.63;9.48;;;;;;;-141.50;100.00;63355.56;4953988;28;20051;-82
2021/12/14 03:23:14;;;;;;;16.25;9.88;;;;;;;-141.50;100.00;63355.56;4952633;28;20075;-83
2021/12/14 03:25:46;;;;;;;17.27;9.95;;;;;;;-141.50;100.00;63355.56;4952837;29;20102;-84
2021/12/14 03:28:14;;;;;;;15.40;9.35;;;;;;;-141.50;100.00;63355.56;4951845;28;20055;-82
2021/12/14 03:30:47;;;;;;;17.58;9.27;;;;;;;-141.50;100.00;63355.56;4952219;28;20496;-83
2021/12/14 03:33:22;;;;;;;15.90;8.82;;;;;;;-141.50;100.00;63355.56;4951558;29;20062;-82
2021/12/14 03:35:55;;;;;;;14.38;8.13;;;;;;;-141.50;100.00;63355.56;4953019;28;20089;-83
2021/12/14 03:38:40;;;;;;;16.60;9.45;;;;;;;-141.50;100.00;63355.56;4954696;28;20079;-82
2021/12/14 03:41:11;;;;;;;15.23;9.60;;;;;;;-141.50;100.00;63355.56;4953939;28;20488;-84
2021/12/14 03:43:58;;;;;;;18.65;9.90;;;;;;;-141.50;100.00;63355.56;4953645;28;20083;-82
2021/12/14 03:46:31;;;;;;;18.10;9.95;;;;;;;-141.50;100.00;63355.56;4951458;29;20475;-82
2021/12/14 03:48:59;;;;;;;16.98;9.95;;;;;;;-141.50;100.00;63355.56;4949713;29;20116;-84
2021/12/14 03:51:26;;;;;;;15.77;9.45;;;;;;;-141.50;100.00;63355.56;4953634;28;20317;-85
2021/12/14 03:53:56;;;;;;;18.00;9.73;;;;;;;-141.50;100.00;63355.56;4953117;28;20079;-84
2021/12/14 03:56:24;;;;;;;15.10;9.35;;;;;;;-141.50;100.00;63355.56;4960700;28;20094;-84
2021/12/14 03:58:51;;;;;;;16.70;9.35;;;;;;;-141.50;100.00;63355.56;4960131;28;20055;-82
2021/12/14 04:01:32;;;;;;;16.30;9.27;;;;;;;-141.50;100.00;63355.56;4953484;29;20087;-83
2021/12/14 04:04:09;;;;;;;16.13;9.27;;;;;;;-141.50;100.00;63355.56;4953413;28;20107;-83
2021/12/14 04:06:37;;;;;;;14.57;9.07;;;;;;;-141.50;100.00;63355.56;4954292;29;20079;-83
2021/12/14 04:09:08;;;;;;;16.20;9.73;;;;;;;-141.50;100.00;63355.56;4952461;28;20088;-83
2021/12/14 04:11:35;;;;;;;15.52;9.48;;;;;;;-141.50;100.00;63355.56;4954120;28;20078;-83
2021/12/14 04:14:03;;;;;;;16.80;9.18;;;;;;;-141.50;100.00;63355.56;4951695;28;20184;-83
2021/12/14 04:16:29;;;;;;;17.73;8.82;;;;;;;-141.50;100.00;63355.56;4963086;28;20095;-83
2021/12/14 04:19:03;;;;;;;17.15;9.52;;;;;;;-141.50;100.00;63355.56;4967887;29;20539;-83
2021/12/14 04:21:32;;;;;;;18.75;9.07;;;;;;;-141.50;100.00;63355.56;4954225;29;20105;-83
2021/12/14 04:23:59;;;;;;;14.48;9.10;;;;;;;-141.50;100.00;63355.56;4955173;28;20052;-83
2021/12/14 04:26:27;;;;;;;16.83;8.50;;;;;;;-141.50;100.00;63355.56;4954226;28;20481;-83
2021/12/14 04:28:56;;;;;;;17.48;8.05;;;;;;;-141.50;100.00;63355.56;4953341;29;20110;-83
2021/12/14 04:31:24;;;;;;;17.08;7.88;;;;;;;-141.50;100.00;63355.56;4957964;28;20062;-83
2021/12/14 04:33:51;;;;;;;11.25;7.35;;;;;;;-141.50;100.00;63355.56;4951970;29;20388;-83
2021/12/14 04:36:23;;;;;;;10.70;6.68;;;;;;;-141.50;100.00;63355.56;4953899;28;20055;-83
2021/12/14 04:39:06;;;;;;;14.77;7.30;;;;;;;-141.50;100.00;63355.56;4956810;28;20445;-83
2021/12/14 04:53:10;;;;;;;13.40;8.77;;;;;;;-141.50;100.00;63355.56;4927855;29;20044;-83
2021/12/14 04:55:44;;;;;;;13.35;8.60;;;;;;;-141.50;100.00;63355.56;4931127;29;20052;-82
2021/12/14 04:58:12;;;;;;;14.10;8.88;;;;;;;-141.50;100.00;63355.56;4938432;29;20063;-83
2021/12/14 05:00:46;;;;;;;14.02;9.15;;;;;;;-141.50;100.00;63355.56;4934068;29;20226;-81
2021/12/14 05:03:23;;;;;;;16.75;10.02;;;;;;;-141.50;100.00;63355.56;4934387;29;20048;-80
2021/12/14 05:06:07;;;;;;;15.18;10.05;;;;;;;-141.50;100.00;63355.56;4933399;29;20059;-82
2021/12/14 05:11:05;;;;;;;15.38;10.05;;;;;;;-141.50;100.00;63355.56;4929395;29;20067;-83
2021/12/14 05:13:36;;;;;;;18.17;10.23;;;;;;;-141.50;100.00;63355.56;4944714;29;20490;-81
2021/12/14 05:16:04;;;;;;;15.18;9.77;;;;;;;-141.50;100.00;63355.56;4942526;29;20341;-84
2021/12/14 05:18:31;;;;;;;15.98;10.00;;;;;;;-141.50;100.00;63355.56;4938071;29;20377;-83
2021/12/14 05:20:59;;;;;;;17.92;10.80;;;;;;;-141.50;100.00;63355.56;4937676;29;20090;-84
2021/12/14 05:23:30;;;;;;;19.10;10.63;;;;;;;-141.50;100.00;63355.56;4959441;28;20197;-83
2021/12/14 05:25:57;;;;;;;19.35;10.43;;;;;;;-141.50;100.00;63355.56;4926864;29;20048;-83
2021/12/14 05:28:25;;;;;;;22.00;10.95;;;;;;;-141.50;100.00;63355.56;4921070;29;20662;-83
2021/12/14 05:30:57;;;;;;;20.52;10.57;;;;;;;-141.50;100.00;63355.56;4925399;29;20076;-81
2021/12/14 05:33:34;;;;;;;16.98;10.63;;;;;;;-141.50;100.00;63355.56;4924580;29;20298;-82
2021/12/14 05:36:05;;;;;;;16.30;10.30;;;;;;;-141.50;100.00;63355.56;4922331;29;20048;-84
2021/12/14 05:44:15;;;;;;;17.88;10.40;;;;;;;-141.50;100.00;63355.56;4923873;29;20059;-83
2021/12/14 05:46:50;;;;;;;19.27;10.98;;;;;;;-141.50;100.00;63355.56;4924122;29;20052;-84
2021/12/14 05:49:23;;;;;;;18.23;11.13;;;;;;;-141.50;100.00;63355.56;4921651;29;20063;-84
2021/12/14 05:51:51;;;;;;;17.30;10.90;;;;;;;-141.50;100.00;63355.56;4922773;29;20115;-83
2021/12/14 05:54:21;;;;;;;20.77;10.90;;;;;;;-141.50;100.00;63355.56;4940259;29;20071;-83
2021/12/14 05:56:49;;;;;;;18.88;11.15;;;;;;;-141.50;100.00;63355.56;4917964;29;20052;-83
2021/12/14 05:59:20;;;;;;;18.50;10.68;;;;;;;-141.50;100.00;63355.56;4920046;29;20056;-84
2021/12/14 06:01:49;;;;;;;16.02;9.90;;;;;;;-141.50;100.00;63355.56;4924348;29;20059;-83
2021/12/14 06:04:16;;;;;;;18.08;9.57;;;;;;;-141.50;100.00;63355.56;4921862;29;20059;-84
2021/12/14 06:06:54;;;;;;;18.48;8.75;;;;;;;-141.50;100.00;63355.56;4921975;29;20059;-84
2021/12/14 06:09:30;;;;;;;14.50;8.57;;;;;;;-141.50;100.00;63355.56;4919881;29;20051;-83
2021/12/14 06:12:07;;;;;;;15.82;9.15;;;;;;;-141.50;100.00;63355.56;4919495;29;20634;-84
2021/12/14 06:14:41;;;;;;;14.23;8.80;;;;;;;-141.50;100.00;63355.56;4920264;29;20052;-83
2021/12/14 06:17:09;;;;;;;15.75;9.60;;;;;;;-141.50;100.00;63355.56;4923885;29;20056;-83
2021/12/14 06:19:41;;;;;;;16.17;9.70;;;;;;;-141.50;100.00;63355.56;4923373;29;20092;-80
2021/12/14 06:22:14;;;;;;;19.45;10.07;;;;;;;-141.50;100.00;63355.56;4942874;29;20055;-82
2021/12/14 06:24:45;;;;;;;17.08;11.02;;;;;;;-141.50;100.00;63355.56;4947085;29;20079;-82
2021/12/14 06:27:14;;;;;;;15.77;9.80;;;;;;;-141.50;100.00;63355.56;4941581;28;20464;-82
2021/12/14 06:29:45;;;;;;;19.38;10.60;;;;;;;-141.50;100.00;63355.56;4959901;29;20051;-83
2021/12/14 06:32:15;;;;;;;18.20;10.02;;;;;;;-141.50;100.00;63355.56;4961817;29;20070;-83
2021/12/14 06:34:54;;;;;;;17.35;9.95;;;;;;;-141.50;100.00;63355.56;4961701;28;20070;-81
2021/12/14 06:40:04;;;;;;;14.30;9.15;;;;;;;-141.50;100.00;63355.56;4941247;28;20160;-82
2021/12/14 06:42:33;;;;;;;15.23;9.65;;;;;;;-141.50;100.00;63355.56;4943160;29;20067;-82
2021/12/14 06:45:07;;;;;;;16.70;10.05;;;;;;;-141.50;100.00;63355.56;4939602;29;20052;-82
2021/12/14 06:47:34;;;;;;;15.60;9.85;;;;;;;-141.50;100.00;63355.56;4947328;28;20087;-82
2021/12/14 06:50:15;;;;;;;22.38;10.52;;;;;;;-141.50;100.00;63355.56;4932485;29;20052;-82
2021/12/14 06:52:42;;;;;;;16.38;10.60;;;;;;;-141.50;100.00;63355.56;4919411;29;20157;-83
2021/12/14 06:55:20;;;;;;;17.02;10.68;;;;;;;-141.50;100.00;63355.56;4930505;29;20047;-82
2021/12/14 06:57:47;;;;;;;18.65;10.38;;;;;;;-141.50;100.00;63355.56;4936397;29;20118;-81
2021/12/14 07:00:14;;;;;;;16.83;10.32;;;;;;;-141.50;100.00;63355.56;4936152;29;20090;-82
2021/12/14 07:02:51;;;;;;;16.90;11.20;;;;;;;-141.50;100.00;63355.56;4948600;29;20036;-82
2021/12/14 07:05:20;;;;;;;18.65;10.70;;;;;;;-141.50;100.00;63355.56;4964255;29;20047;-79
2021/12/14 07:07:47;;;;;;;16.88;11.07;;;;;;;-141.50;100.00;63355.56;4966654;28;20055;-83
2021/12/14 07:10:17;;;;;;;19.17;11.35;;;;;;;-141.50;100.00;63355.56;4956365;29;20130;-80
2021/12/14 07:12:46;;;;;;;18.25;12.00;;;;;;;-141.50;100.00;63355.56;4970541;28;20492;-81
2021/12/14 07:15:24;;;;;;;21.30;12.18;;;;;;;-141.50;100.00;63355.56;4954586;29;20595;-83
2021/12/14 07:17:59;;;;;;;19.17;11.73;;;;;;;-141.50;100.00;63355.56;4953937;29;20051;-83
2021/12/14 07:20:34;;;;;;;;;;;;;;;-141.50;100.00;63355.56;4945417;28;20118;-81
2021/12/14 07:23:15;;;;;;;18.63;11.73;;;;;;;-141.50;100.00;63355.56;4935349;29;19923;-83
2021/12/14 07:25:42;;;;;;;22.48;12.05;;;;;;;-141.50;100.00;63355.56;4938599;29;20071;-80
2021/12/14 07:28:15;;;;;;;19.85;12.27;;;;;;;-141.50;100.00;63355.56;4951843;29;20051;-81
2021/12/14 07:30:43;;;;;;;21.02;13.05;;;;;;;-141.50;100.00;63355.56;4922130;29;20052;-83
2021/12/14 07:33:21;;;;;;;20.83;13.18;;;;;;;-141.50;100.00;63355.56;4940312;29;20111;-81
2021/12/14 07:36:03;;;;;;;21.63;13.60;;;;;;;-141.50;100.00;63355.56;4938938;29;20044;-80
2021/12/14 07:38:42;;;;;;;23.55;13.18;;;;;;;-141.50;100.00;63355.56;4937670;29;20106;-82
2021/12/14 07:41:23;;;;;;;24.23;13.25;;;;;;;-141.50;100.00;63355.56;4935623;29;20095;-82
2021/12/14 07:44:04;;;;;;;21.60;13.25;;;;;;;-141.50;100.00;63355.56;4941455;29;20052;-83
2021/12/14 07:46:34;;;;;;;23.30;13.40;;;;;;;-141.50;100.00;63355.56;4939563;29;20043;-82
2021/12/14 07:49:06;;;;;;;22.20;13.95;;;;;;;-141.50;100.00;63355.56;4949911;29;20051;-81
2021/12/14 07:51:35;;;;;;;22.92;14.00;;;;;;;-141.50;100.00;63355.56;4960651;28;20055;-81
2021/12/14 07:54:09;;;;;;;23.77;13.27;;;;;;;-141.50;100.00;63355.56;4956661;29;20075;-81
2021/12/14 07:56:51;;;;;;;23.63;13.32;;;;;;;-141.50;100.00;63355.56;4942388;29;20079;-82
2021/12/14 07:59:27;;;;;;;21.73;13.15;;;;;;;-141.50;100.00;63355.56;4936825;29;20115;-83
2021/12/14 08:02:11;;;;;;;20.40;12.23;;;;;;;-141.50;100.00;63355.56;4942612;29;20055;-82
2021/12/14 08:04:39;;;;;;;18.48;11.80;;;;;;;-141.50;100.00;63355.56;4934807;29;20056;-82
2021/12/14 08:07:06;;;;;;;20.08;12.50;;;;;;;-141.50;100.00;63355.56;4951475;29;20142;-82
2021/12/14 08:09:49;;;;;;;19.63;11.73;;;;;;;-141.50;100.00;63355.56;4957531;28;20047;-82
2021/12/14 08:12:34;;;;;;;18.15;12.05;;;;;;;-141.50;100.00;63355.56;4959944;28;20086;-82
2021/12/14 08:15:30;;;;;;;18.08;10.98;;;;;;;-141.50;100.00;63355.56;4958230;28;20051;-81
2021/12/14 08:18:03;;;;;;;20.45;12.23;;;;;;;-141.50;100.00;63355.56;4960352;28;20047;-81
2021/12/14 08:20:31;;;;;;;18.20;11.48;;;;;;;-141.50;100.00;63355.56;4959157;29;20071;-80
2021/12/14 08:23:13;;;;;;;20.77;12.43;;;;;;;-141.50;100.00;63355.56;4947613;28;20071;-81
2021/12/14 08:25:41;;;;;;;17.88;11.50;;;;;;;-141.50;100.00;63355.56;4942317;29;20076;-80
2021/12/14 08:28:09;;;;;;;19.88;11.95;;;;;;;-141.50;100.00;63355.56;4941326;29;20115;-81
2021/12/14 08:30:39;;;;;;;19.10;12.25;;;;;;;-141.50;100.00;63355.56;4940656;29;20151;-81
2021/12/14 08:33:19;;;;;;;21.60;12.13;;;;;;;-141.50;100.00;63355.56;4941607;28;20060;-82
2021/12/14 08:35:45;;;;;;;22.15;11.20;;;;;;;-141.50;100.00;63355.56;4944327;29;20126;-80
2021/12/14 08:38:15;;;;;;;17.65;11.32;;;;;;;-141.50;100.00;63355.56;4941919;29;20031;-81
2021/12/14 08:40:47;;;;;;;18.05;11.25;;;;;;;-141.50;100.00;63355.56;4957007;29;20051;-83
2021/12/14 08:43:24;;;;;;;16.00;10.40;;;;;;;-141.50;100.00;63355.56;4984613;28;20055;-81
2021/12/14 08:45:58;;;;;;;19.08;11.15;;;;;;;-141.50;100.00;63355.56;4958010;29;20047;-83
2021/12/14 08:48:31;;;;;;;15.13;10.27;;;;;;;-141.50;100.00;63355.56;4959957;28;20051;-83
2021/12/14 08:50:59;;;;;;;13.90;9.50;;;;;;;-141.50;100.00;63355.56;4946449;28;20051;-81
2021/12/14 08:53:35;;;;;;;16.17;9.60;;;;;;;-141.50;100.00;63355.56;4940036;29;20143;-81
2021/12/14 08:56:07;;;;;;;14.57;9.63;;;;;;;-141.50;100.00;63355.56;4940359;29;20497;-82
2021/12/14 08:58:34;;;;;;;13.80;9.25;;;;;;;-141.50;100.00;63355.56;4957912;29;20055;-81
2021/12/14 09:01:09;;;;;;;13.90;9.27;;;;;;;-141.50;100.00;63355.56;4974409;28;20043;-81
2021/12/14 09:03:44;;;;;;;14.07;8.75;;;;;;;-141.50;100.00;63355.56;4951117;29;20496;-83
2021/12/14 09:06:16;;;;;;;12.90;8.77;;;;;;;-141.50;100.00;63355.56;4944088;29;20043;-82
2021/12/14 09:08:44;;;;;;;15.60;9.02;;;;;;;-141.50;100.00;63355.56;4951894;28;20292;-82
2021/12/14 09:11:15;;;;;;;12.73;8.50;;;;;;;-141.50;100.00;63355.56;4953291;29;20044;-79
2021/12/14 09:13:42;;;;;;;16.20;9.43;;;;;;;-141.50;100.00;63355.56;4969240;28;20047;-82
2021/12/14 09:16:18;;;;;;;15.23;8.82;;;;;;;-141.50;100.00;63355.56;4949212;28;20047;-81
2021/12/14 09:18:49;;;;;;;14.65;8.90;;;;;;;-141.50;100.00;63355.56;4949581;29;20056;-80
2021/12/14 09:21:20;;;;;;;13.20;8.68;;;;;;;-141.50;100.00;63355.56;4947529;29;20071;-81
2021/12/14 09:23:51;;;;;;;16.27;8.60;;;;;;;-141.50;100.00;63355.56;4940325;29;20146;-83
2021/12/14 09:26:26;;;;;;;13.98;9.02;;;;;;;-141.50;100.00;63355.56;4961155;29;20077;-81
2021/12/14 09:28:53;;;;;;;13.95;8.25;;;;;;;-141.50;100.00;63355.56;4950597;29;20362;-82
2021/12/14 09:31:26;;;;;;;13.38;8.52;;;;;;;-141.50;100.00;63355.56;4926628;28;20079;-81
2021/12/14 09:33:57;;;;;;;11.98;7.93;;;;;;;-141.50;100.00;63355.56;4920491;29;20509;-81
2021/12/14 09:36:24;;;;;;;14.98;8.60;;;;;;;-141.50;100.00;63355.56;4921549;29;20084;-81
2021/12/14 09:38:55;;;;;;;14.48;8.73;;;;;;;-141.50;100.00;63355.56;4927390;29;20047;-81
2021/12/14 09:41:27;;;;;;;15.68;8.50;;;;;;;-141.50;100.00;63355.56;4963527;28;20046;-82
2021/12/14 09:43:54;;;;;;;12.45;8.25;;;;;;;-141.50;100.00;63355.56;4960731;29;20083;-81
2021/12/14 09:46:22;;;;;;;13.48;8.48;;;;;;;-141.50;100.00;63355.56;4962195;28;20090;-81
2021/12/14 09:48:53;;;;;;;11.45;7.25;;;;;;;-141.50;100.00;63355.56;4960706;28;20145;-78
2021/12/14 09:51:51;;;;;;;11.13;7.72;;;;;;;-141.50;100.00;63355.56;4941880;29;20348;-82
2021/12/14 09:54:21;;;;;;;11.88;8.00;;;;;;;-141.50;100.00;63355.56;4934616;29;20051;-82
2021/12/14 09:56:55;;;;;;;11.65;7.82;;;;;;;-141.50;100.00;63355.56;4958802;29;20043;-82
2021/12/14 09:59:22;;;;;;;16.50;8.13;;;;;;;-141.50;100.00;63355.56;4960487;28;20051;-82
2021/12/14 10:01:59;;;;;;;11.82;7.28;;;;;;;-141.50;100.00;63355.56;4954649;29;20047;-82
2021/12/14 10:04:38;;;;;;;12.18;7.72;;;;;;;-141.50;100.00;63355.56;4945851;29;20055;-81
2021/12/14 10:07:08;;;;;;;11.07;7.38;;;;;;;-141.50;100.00;63355.56;4959067;29;20062;-81
2021/12/14 10:09:42;;;;;;;12.10;7.07;;;;;;;-141.50;100.00;63355.56;4954230;29;20131;-81
2021/12/14 10:14:47;;;;;;;10.20;6.82;;;;;;;-141.50;100.00;63355.56;4966922;29;20382;-82
2021/12/14 10:17:15;;;;;;;9.45;6.70;;;;;;;-141.50;100.00;63355.56;4932069;29;20055;-80
2021/12/14 10:19:43;;;;;;;9.55;6.85;;;;;;;-141.50;100.00;63355.56;4969121;28;20050;-81
2021/12/14 10:22:16;;;;;;;11.70;6.93;;;;;;;-141.50;100.00;63355.56;4944799;29;20053;-82
2021/12/14 10:24:43;;;;;;;13.88;7.45;;;;;;;-141.50;100.00;63355.56;4945108;29;20526;-81
2021/12/14 10:27:14;;;;;;;11.13;6.60;;;;;;;-141.50;100.00;63355.56;4949323;29;20043;-82
2021/12/14 10:29:40;;;;;;;10.18;5.97;;;;;;;-141.50;100.00;63355.56;4964718;28;20067;-82
2021/12/14 10:32:13;;;;;;;8.35;5.88;;;;;;;-141.50;100.00;63355.56;4964930;29;20050;-82
2021/12/14 10:34:45;;;;;;;7.25;5.25;;;;;;;-141.50;100.00;63355.56;4965400;29;20051;-81
2021/12/14 10:37:50;;;;;;;7.45;5.38;;;;;;;-141.50;100.00;63355.56;4966746;28;20520;-81
2021/12/14 10:43:15;;;;;;;7.97;4.90;;;;;;;-141.50;100.00;63355.56;4966736;28;20047;-81
2021/12/14 10:45:48;;;;;;;6.50;4.97;;;;;;;-141.50;100.00;63355.56;4967638;28;20295;-81
2021/12/14 10:48:17;;;;;;;8.00;5.32;;;;;;;-141.50;100.00;63355.56;4966244;29;20520;-81
2021/12/14 10:50:45;;;;;;;7.93;4.28;;;;;;;-141.50;100.00;63355.56;4970084;29;20050;-81
2021/12/14 10:53:12;;;;;;;8.80;4.30;;;;;;;-141.50;100.00;63355.56;4942073;29;20047;-82
2021/12/14 10:55:50;;;;;;;6.75;4.72;;;;;;;-141.50;100.00;63355.56;4944716;29;20062;-81
2021/12/14 10:58:22;;;;;;;7.45;5.10;;;;;;;-141.50;100.00;63355.56;4944348;29;20072;-80
2021/12/14 11:01:00;;;;;;;7.63;5.10;;;;;;;-141.50;100.00;63355.56;4947377;29;20055;-82
2021/12/14 11:03:33;;;;;;;8.75;5.55;;;;;;;-141.50;100.00;63355.56;4945018;29;20543;-79
2021/12/14 11:06:03;;;;;;;8.20;5.55;;;;;;;-141.50;100.00;63355.56;4945533;29;20047;-80
2021/12/14 11:11:11;;;;;;;8.32;5.55;;;;;;;-141.50;100.00;63355.56;4947691;29;20052;-81
2021/12/14 11:13:47;;;;;;;7.95;5.55;;;;;;;-141.50;100.00;63355.56;4949677;29;20083;-81
2021/12/14 11:16:32;;;;;;;10.65;6.03;;;;;;;-141.50;100.00;63355.56;4954570;29;20055;-80
2021/12/14 11:19:06;;;;;;;8.73;5.82;;;;;;;-141.50;100.00;63355.56;4951794;29;20058;-81
2021/12/14 11:21:33;;;;;;;10.75;5.90;;;;;;;-141.50;100.00;63355.56;4946577;29;20051;-81
2021/12/14 11:23:59;;;;;;;9.52;6.28;;;;;;;-141.50;100.00;63355.56;4948067;29;20056;-81
2021/12/14 11:26:32;;;;;;;11.73;7.10;;;;;;;-141.50;100.00;63355.56;4946454;29;20047;-80
2021/12/14 11:29:04;;;;;;;12.15;7.25;;;;;;;-141.50;100.00;63355.56;4943521;29;20051;-81
2021/12/14 11:31:51;;;;;;;10.32;6.65;;;;;;;-141.50;100.00;63355.56;4956708;29;20102;-79
2021/12/14 11:34:39;;;;;;;9.43;6.35;;;;;;;-141.50;100.00;63355.56;4942585;29;20054;-80
2021/12/14 11:37:14;;;;;;;12.55;7.28;;;;;;;-141.50;100.00;63355.56;4936401;29;20062;-81
2021/12/14 11:39:48;;;;;;;12.00;7.90;;;;;;;-141.50;100.00;63355.56;4939221;29;20051;-81
2021/12/14 11:42:27;;;;;;;11.60;8.10;;;;;;;-141.50;100.00;63355.56;4955184;28;20155;-81
2021/12/14 11:45:06;;;;;;;14.02;8.73;;;;;;;-141.50;100.00;63355.56;4951611;29;20138;-81
2021/12/14 11:50:35;;;;;;;14.32;9.23;;;;;;;-141.50;100.00;63355.56;4945043;28;20059;-80
2021/12/14 11:53:13;;;;;;;15.10;9.30;;;;;;;-141.50;100.00;63355.56;4941091;29;20253;-82
2021/12/14 11:55:48;;;;;;;16.17;9.65;;;;;;;-141.50;100.00;63355.56;4941990;29;20372;-80
2021/12/14 11:58:36;;;;;;;15.27;10.07;;;;;;;-141.50;100.00;63355.56;4949295;29;20444;-80
2021/12/14 12:01:32;;;;;;;18.80;11.20;;;;;;;-141.50;100.00;63355.56;4926644;29;20071;-78
2021/12/14 12:04:07;;;;;;;16.33;11.30;;;;;;;-141.50;100.00;63355.56;4941091;28;20083;-79
2021/12/14 12:09:29;;;;;;;19.90;11.55;;;;;;;-141.50;100.00;63355.56;4946293;29;20072;-81
2021/12/14 12:12:07;;;;;;;23.35;13.50;;;;;;;-141.50;100.00;63355.56;4928308;29;20409;-82
2021/12/14 12:14:33;;;;;;;19.13;12.75;;;;;;;-141.50;100.00;63355.56;4956854;29;20080;-82